»·PEaware :: N777CW KSNA-KSMO

N777CW :: KSNA-KSMO

FLIGHT INFORMATION

Flight Status: Arrived
Operator: Privately registered:
United States
More flights under this callsign
Pilot: Will K. (13011)
Aircraft: CESSNA 172 SKYHAWK
(C172)
More flights by this aircraft type
Origin: KSNA John Wayne-Orange Co
United States
Destination: KSMO Santa Monica Mun
United States
More flights between these airports :: More routes between these airports
Route: +SLI V8 POXKU V363 BAYJY V186 DARTS
File this flight plan on PilotEdge
Remarks: I-4 Refresh
Altitude:
(Current/Filed)
6,000ft
Speed:
(Current/Filed)
130kts
Departed: 15-Apr-18 08:47 PM
Arrived: 15-Apr-18 09:25 PM
Distance/Time
Traveled:
35nm/0:38
Distance/Time
To Go:
Arrived

Flight Plot

Page will automatically refresh every two minutes.


Map Options




Map Legend


Flown Route
Filed Route
Departure Airport
Arrival Airport
Navaid (VOR, NDB)
Fix

Horizontal Profiles

Position Reports

Time Latitude Longitude Heading Altitude Ground
Speed
15-Apr-18 19:59 33.666064 -117.872860 29 59ft 0kts
15-Apr-18 20:00 33.666068 -117.872858 29 59ft 0kts
15-Apr-18 20:01 33.666071 -117.872856 29 59ft 0kts
15-Apr-18 20:02 33.666073 -117.872854 29 59ft 0kts
15-Apr-18 20:03 33.666076 -117.872852 29 59ft 0kts
15-Apr-18 20:04 33.666079 -117.872850 29 59ft 0kts
15-Apr-18 20:05 33.666082 -117.872848 29 59ft 0kts
15-Apr-18 20:06 33.666085 -117.872846 29 59ft 0kts
15-Apr-18 20:07 33.666089 -117.872844 29 59ft 0kts
15-Apr-18 20:08 33.666092 -117.872841 29 59ft 0kts
15-Apr-18 20:09 33.666096 -117.872839 29 59ft 0kts
15-Apr-18 20:10 33.666099 -117.872837 29 59ft 0kts
15-Apr-18 20:11 33.666103 -117.872834 29 59ft 0kts
15-Apr-18 20:12 33.666106 -117.872832 29 59ft 0kts
15-Apr-18 20:13 33.666110 -117.872829 29 59ft 0kts
15-Apr-18 20:14 33.666113 -117.872827 29 59ft 0kts
15-Apr-18 20:15 33.666117 -117.872825 29 59ft 0kts
15-Apr-18 20:16 33.666120 -117.872822 29 59ft 0kts
15-Apr-18 20:17 33.666124 -117.872820 29 59ft 0kts
15-Apr-18 20:18 33.666127 -117.872818 29 59ft 0kts
15-Apr-18 20:19 33.666130 -117.872816 29 59ft 0kts
15-Apr-18 20:20 33.666134 -117.872813 29 59ft 0kts
15-Apr-18 20:21 33.666138 -117.872811 29 59ft 0kts
15-Apr-18 20:22 33.666141 -117.872808 29 59ft 0kts
15-Apr-18 20:23 33.666145 -117.872806 29 59ft 0kts
15-Apr-18 20:24 33.666148 -117.872804 29 59ft 0kts
15-Apr-18 20:25 33.666151 -117.872802 29 59ft 0kts
15-Apr-18 20:26 33.666155 -117.872799 29 59ft 0kts
15-Apr-18 20:27 33.666158 -117.872797 29 59ft 0kts
15-Apr-18 20:28 33.666162 -117.872795 29 59ft 0kts
15-Apr-18 20:29 33.666165 -117.872792 29 59ft 0kts
15-Apr-18 20:30 33.666169 -117.872790 29 59ft 0kts
15-Apr-18 20:31 33.666172 -117.872788 29 59ft 0kts
15-Apr-18 20:32 33.666176 -117.872785 29 59ft 0kts
15-Apr-18 20:33 33.666179 -117.872783 29 59ft 0kts
15-Apr-18 20:34 33.666183 -117.872780 29 59ft 0kts
15-Apr-18 20:35 33.666186 -117.872778 29 59ft 0kts
15-Apr-18 20:36 33.666190 -117.872776 29 59ft 0kts
15-Apr-18 20:37 33.666193 -117.872773 29 59ft 0kts
15-Apr-18 20:38 33.666197 -117.872771 29 59ft 0kts
15-Apr-18 20:39 33.666455 -117.872667 24 59ft 7kts
15-Apr-18 20:40 33.668461 -117.871594 41 59ft 16kts
15-Apr-18 20:41 33.672694 -117.867739 34 59ft 12kts
15-Apr-18 20:42 33.674301 -117.866965 25 59ft 8kts
15-Apr-18 20:43 33.676618 -117.865505 29 59ft 6kts
15-Apr-18 20:44 33.679460 -117.863716 27 59ft 10kts
15-Apr-18 20:45 33.680102 -117.864056 271 59ft 7kts
15-Apr-18 20:46 33.667166 -117.873010 212 501ft 79kts
15-Apr-18 20:47 33.654144 -117.894951 232 1372ft 84kts
15-Apr-18 20:48 33.641400 -117.919288 259 2184ft 86kts
15-Apr-18 20:49 33.655326 -117.941330 328 2953ft 93kts
15-Apr-18 20:50 33.675533 -117.958166 323 3698ft 90kts
15-Apr-18 20:51 33.699974 -117.960093 12 4442ft 94kts
15-Apr-18 20:52 33.725909 -117.950885 16 5069ft 100kts
15-Apr-18 20:53 33.749912 -117.931876 31 5635ft 106kts
15-Apr-18 20:54 33.774317 -117.910050 34 6002ft 123kts
15-Apr-18 20:55 33.802462 -117.885658 35 6005ft 123kts
15-Apr-18 20:56 33.830195 -117.861286 36 5992ft 124kts
15-Apr-18 20:57 33.842703 -117.824334 82 5993ft 121kts
15-Apr-18 20:58 33.852205 -117.786599 56 6069ft 120kts
15-Apr-18 20:59 33.883080 -117.778438 353 6026ft 118kts
15-Apr-18 21:00 33.916333 -117.779804 353 5983ft 118kts
15-Apr-18 21:01 33.949265 -117.781441 353 6025ft 117kts
15-Apr-18 21:02 33.982221 -117.782811 351 6021ft 118kts
15-Apr-18 21:03 34.011589 -117.794145 301 6050ft 107kts
15-Apr-18 21:04 34.022577 -117.826947 280 6044ft 105kts
15-Apr-18 21:05 34.031973 -117.860654 284 6032ft 108kts
15-Apr-18 21:06 34.042122 -117.894337 284 6050ft 103kts
15-Apr-18 21:07 34.052607 -117.925964 289 6113ft 102kts
15-Apr-18 21:08 34.062695 -117.958303 285 6077ft 108kts
15-Apr-18 21:09 34.072430 -117.992498 287 6058ft 105kts
15-Apr-18 21:10 34.081775 -118.026657 283 5981ft 108kts
15-Apr-18 21:11 34.091560 -118.062118 283 5603ft 114kts
15-Apr-18 21:12 34.101385 -118.098748 284 5142ft 115kts
15-Apr-18 21:13 34.100306 -118.131388 261 5013ft 101kts
15-Apr-18 21:14 34.098414 -118.156080 261 4993ft 100kts
15-Apr-18 21:15 34.095558 -118.192949 261 4663ft 105kts
15-Apr-18 21:16 34.093336 -118.227307 264 3978ft 102kts
15-Apr-18 21:17 34.089844 -118.261174 259 3466ft 107kts
15-Apr-18 21:18 34.084654 -118.297819 261 3002ft 112kts
15-Apr-18 21:19 34.081522 -118.332227 259 2968ft 98kts
15-Apr-18 21:20 34.070893 -118.365251 243 2613ft 109kts
15-Apr-18 21:21 34.058081 -118.393790 236 2137ft 91kts
15-Apr-18 21:22 34.042022 -118.420380 225 1094ft 104kts
15-Apr-18 21:23 34.023660 -118.442058 222 291ft 73kts
15-Apr-18 21:24 34.014218 -118.453281 223 178ft 25kts
15-Apr-18 21:25 34.012823 -118.453322 76 178ft 0kts

Navigation Log

Ident Type
1. KSNA Airport
2. SLI Navaid
3. AHEIM Fix
4. OLLIE Fix
5. POXKU Fix
6. POXKU Fix
7. PRADO Fix
8. BAYJY Fix
9. BAYJY Fix
10. ADAMM Fix
11. PIRRO Fix
12. ITSME Fix
13. ELMOO Fix
14. PURMS Fix
15. DARTS Fix
16. KSMO Airport